Terminal Aerodrome Forecast
Issued by NWS Denver/Boulder, CO

Home | Current Version | Previous Version | Text Only | Print | Product List | Glossary On
Versions: 1 2 3 4 5 6 7 8 9 10 11 12 13 14 15 16 17 18 19 20 21 22 23 24 25 26 27 28 29 30 31 32 33 34
000
FTUS45 KBOU 272320
TAFDEN
TAF
KDEN 272320Z 2800/2906 05007KT P6SM FEW120
     FM280300 17007KT P6SM FEW220
     FM280600 22008KT P6SM SKC
     FM281500 26006KT P6SM SKC
     FM281700 30007KT P6SM FEW120
     FM282100 11005KT P6SM FEW120=

USA.gov is the U.S. government's official web portal to all federal, state and local government web resources and services.